Time;durP1;ratioP1;P1;durP2;ratioP2;P2;SDS_P1;SDS_P2;PMS_P1;PMS_P2;Temp;Humidity;BMP_temperature;BMP_pressure;BME280_temperature;BME280_humidity;BME280_pressure;Samples;Min_cycle;Max_cycle;Signal;HPM_P1;HPM_P2
2023/07/17 00:02:06;;;;;;;14.52;13.07;;;;;;;;;;5047555;28;20435;-75
2023/07/17 00:04:32;;;;;;;14.32;13.13;;;;;;;;;;5047391;28;20030;-75
2023/07/17 00:06:57;;;;;;;13.30;11.90;;;;;;;;;;5048304;28;20451;-76
2023/07/17 00:09:23;;;;;;;16.13;12.88;;;;;;;;;;5047251;28;20419;-77
2023/07/17 00:11:48;;;;;;;15.45;13.68;;;;;;;;;;5061806;28;20623;-75
2023/07/17 00:14:14;;;;;;;14.70;13.30;;;;;;;;;;5057862;28;20040;-75
2023/07/17 00:16:39;;;;;;;14.55;13.13;;;;;;;;;;5060006;28;20028;-76
2023/07/17 00:19:05;;;;;;;15.15;13.75;;;;;;;;;;5060657;28;20388;-74
2023/07/17 00:21:30;;;;;;;16.25;14.77;;;;;;;;;;5059488;28;20416;-74
2023/07/17 00:23:57;;;;;;;14.55;13.15;;;;;;;;;;5059043;28;20128;-73
2023/07/17 00:26:23;;;;;;;14.45;13.20;;;;;;;;;;5074679;28;20417;-74
2023/07/17 00:28:48;;;;;;;15.45;14.05;;;;;;;;;;5057106;28;20507;-76
2023/07/17 00:31:13;;;;;;;16.05;14.45;;;;;;;;;;5058762;28;20078;-76
2023/07/17 00:33:39;;;;;;;15.10;13.68;;;;;;;;;;5048129;28;20115;-74
2023/07/17 00:36:04;;;;;;;15.75;14.35;;;;;;;;;;5054734;28;20380;-74
2023/07/17 00:38:29;;;;;;;16.30;14.52;;;;;;;;;;5059667;28;20090;-76
2023/07/17 00:40:55;;;;;;;14.82;13.52;;;;;;;;;;5057710;28;20024;-75
2023/07/17 00:43:20;;;;;;;15.05;13.52;;;;;;;;;;5054761;28;20032;-76
2023/07/17 00:45:46;;;;;;;17.00;14.10;;;;;;;;;;5056342;28;20071;-75
2023/07/17 00:48:11;;;;;;;15.82;14.23;;;;;;;;;;5073258;28;20115;-73
2023/07/17 00:50:37;;;;;;;14.45;13.18;;;;;;;;;;5055705;28;20119;-74
2023/07/17 00:53:03;;;;;;;14.48;13.18;;;;;;;;;;5051594;28;20028;-73
2023/07/17 00:55:29;;;;;;;14.32;13.02;;;;;;;;;;5049872;28;20032;-74
2023/07/17 00:57:55;;;;;;;15.70;13.63;;;;;;;;;;5054880;28;20025;-75
2023/07/17 01:00:22;;;;;;;14.68;13.20;;;;;;;;;;5056641;28;20052;-76
2023/07/17 01:02:48;;;;;;;16.98;12.90;;;;;;;;;;5056996;28;20028;-75
2023/07/17 01:05:13;;;;;;;15.50;14.18;;;;;;;;;;5055743;28;20412;-73
2023/07/17 01:07:39;;;;;;;15.25;13.65;;;;;;;;;;5050403;28;20123;-73
2023/07/17 01:10:05;;;;;;;15.05;13.65;;;;;;;;;;5051785;28;20093;-73
2023/07/17 01:12:32;;;;;;;15.15;13.60;;;;;;;;;;5058818;28;20025;-73
2023/07/17 01:14:57;;;;;;;15.05;13.52;;;;;;;;;;5053885;28;20067;-76
2023/07/17 01:17:22;;;;;;;14.93;13.52;;;;;;;;;;5056758;28;20080;-73
2023/07/17 01:19:48;;;;;;;14.25;13.05;;;;;;;;;;5053672;28;20074;-73
2023/07/17 01:22:21;;;;;;;14.07;12.68;;;;;;;;;;5047536;28;20772;-74
2023/07/17 01:24:47;;;;;;;14.63;13.20;;;;;;;;;;5048939;28;20020;-72
2023/07/17 01:27:12;;;;;;;15.43;13.45;;;;;;;;;;5047143;28;20036;-75
2023/07/17 01:29:38;;;;;;;15.73;14.27;;;;;;;;;;5053837;28;20032;-73
2023/07/17 01:32:03;;;;;;;16.23;14.63;;;;;;;;;;5055029;28;20031;-75
2023/07/17 01:34:29;;;;;;;15.88;14.40;;;;;;;;;;5046901;28;20411;-76
2023/07/17 01:36:54;;;;;;;15.18;13.27;;;;;;;;;;5053015;28;20047;-72
2023/07/17 01:39:19;;;;;;;15.65;14.13;;;;;;;;;;5050119;28;20814;-73
2023/07/17 01:41:45;;;;;;;16.42;14.90;;;;;;;;;;5060061;28;20735;-72
2023/07/17 01:44:10;;;;;;;16.10;13.93;;;;;;;;;;5054091;28;20013;-72
2023/07/17 01:46:35;;;;;;;14.35;13.07;;;;;;;;;;5059542;28;20043;-75
2023/07/17 01:49:01;;;;;;;14.65;13.40;;;;;;;;;;5058966;28;20121;-75
2023/07/17 01:51:26;;;;;;;15.75;14.15;;;;;;;;;;5055763;28;20021;-76
2023/07/17 01:53:51;;;;;;;15.68;13.75;;;;;;;;;;5054777;28;20385;-73
2023/07/17 01:56:17;;;;;;;15.15;13.60;;;;;;;;;;5048782;28;20094;-75
2023/07/17 01:58:42;;;;;;;15.50;13.57;;;;;;;;;;5048497;28;20035;-74
2023/07/17 02:01:07;;;;;;;13.70;12.50;;;;;;;;;;5055196;28;20133;-71
2023/07/17 02:03:34;;;;;;;14.45;13.02;;;;;;;;;;5052308;28;20388;-71
2023/07/17 02:05:59;;;;;;;16.17;14.50;;;;;;;;;;5054294;28;20025;-71
2023/07/17 02:08:25;;;;;;;17.08;14.60;;;;;;;;;;5053669;28;20052;-72
2023/07/17 02:10:51;;;;;;;14.93;13.45;;;;;;;;;;5056598;28;20029;-73
2023/07/17 02:13:17;;;;;;;15.30;13.85;;;;;;;;;;5051444;28;20028;-72
2023/07/17 02:15:42;;;;;;;15.52;14.02;;;;;;;;;;5050911;28;20036;-73
2023/07/17 02:18:07;;;;;;;15.88;14.35;;;;;;;;;;5055381;28;20589;-72
2023/07/17 02:20:33;;;;;;;15.05;13.65;;;;;;;;;;5058709;28;20021;-73
2023/07/17 02:22:58;;;;;;;14.98;13.60;;;;;;;;;;5055615;28;20029;-73
2023/07/17 02:25:23;;;;;;;14.10;12.90;;;;;;;;;;5051366;28;20021;-73
2023/07/17 02:27:49;;;;;;;13.68;12.57;;;;;;;;;;5058495;28;20372;-71
2023/07/17 02:30:14;;;;;;;15.48;13.95;;;;;;;;;;5048263;28;20027;-75
2023/07/17 02:32:40;;;;;;;17.40;13.43;;;;;;;;;;5054557;28;20108;-72
2023/07/17 02:35:05;;;;;;;14.40;12.35;;;;;;;;;;5047246;28;20032;-73
2023/07/17 02:37:30;;;;;;;14.30;13.00;;;;;;;;;;5055551;28;20522;-72
2023/07/17 02:39:56;;;;;;;14.82;13.32;;;;;;;;;;5056173;28;20028;-74
2023/07/17 02:42:22;;;;;;;14.60;13.30;;;;;;;;;;5060060;28;20099;-71
2023/07/17 02:44:47;;;;;;;14.70;12.98;;;;;;;;;;5054537;28;20463;-72
2023/07/17 02:47:13;;;;;;;13.88;12.45;;;;;;;;;;5058336;28;20028;-72
2023/07/17 02:49:38;;;;;;;15.10;13.60;;;;;;;;;;5058731;28;20021;-74
2023/07/17 02:52:07;;;;;;;14.82;13.32;;;;;;;;;;5052121;28;20039;-72
2023/07/17 02:54:33;;;;;;;15.50;13.85;;;;;;;;;;5059030;28;20047;-72
2023/07/17 02:56:58;;;;;;;15.80;13.98;;;;;;;;;;5061080;28;20020;-73
2023/07/17 02:59:24;;;;;;;15.52;14.13;;;;;;;;;;5060818;28;20028;-73
2023/07/17 03:01:49;;;;;;;14.73;13.30;;;;;;;;;;5051595;28;20111;-75
2023/07/17 03:04:14;;;;;;;14.77;13.18;;;;;;;;;;5060003;28;20029;-74
2023/07/17 03:06:40;;;;;;;14.30;13.00;;;;;;;;;;5059083;28;20024;-72
2023/07/17 03:09:06;;;;;;;14.73;12.98;;;;;;;;;;5058217;28;20044;-72
2023/07/17 03:11:32;;;;;;;15.63;14.13;;;;;;;;;;5056177;28;20339;-72
2023/07/17 03:13:57;;;;;;;15.25;13.75;;;;;;;;;;5057020;28;20024;-74
2023/07/17 03:16:22;;;;;;;15.05;13.43;;;;;;;;;;5051426;28;20355;-73
2023/07/17 03:18:48;;;;;;;15.10;12.90;;;;;;;;;;5056633;28;20029;-72
2023/07/17 03:21:13;;;;;;;14.82;13.40;;;;;;;;;;5061163;28;20028;-74
2023/07/17 03:23:38;;;;;;;15.93;14.45;;;;;;;;;;5061660;28;20035;-74
2023/07/17 03:26:04;;;;;;;18.45;14.45;;;;;;;;;;5053789;28;20451;-73
2023/07/17 03:28:29;;;;;;;15.43;13.82;;;;;;;;;;5053417;28;20469;-76
2023/07/17 03:30:58;;;;;;;16.02;14.32;;;;;;;;;;5055835;28;20074;-72
2023/07/17 03:33:23;;;;;;;16.42;14.10;;;;;;;;;;5053909;28;20031;-76
2023/07/17 03:35:48;;;;;;;15.77;14.32;;;;;;;;;;5045791;28;20036;-73
2023/07/17 03:38:14;;;;;;;15.95;14.25;;;;;;;;;;5047810;28;20021;-73
2023/07/17 03:40:39;;;;;;;14.90;13.40;;;;;;;;;;5046369;28;20025;-74
2023/07/17 03:43:04;;;;;;;16.17;14.68;;;;;;;;;;5051852;28;20032;-73
2023/07/17 03:45:30;;;;;;;16.85;15.23;;;;;;;;;;5055797;28;20455;-71
2023/07/17 03:47:55;;;;;;;18.15;16.40;;;;;;;;;;5051496;28;20328;-71
2023/07/17 03:50:20;;;;;;;20.35;18.15;;;;;;;;;;5056616;28;20024;-72
2023/07/17 03:52:46;;;;;;;19.55;17.02;;;;;;;;;;5043132;28;20038;-72
2023/07/17 03:55:11;;;;;;;19.88;16.65;;;;;;;;;;5046127;28;20351;-70
2023/07/17 03:57:36;;;;;;;16.35;14.80;;;;;;;;;;5048369;28;20020;-73
2023/07/17 04:00:04;;;;;;;15.55;13.80;;;;;;;;;;5041962;28;20055;-71
2023/07/17 04:02:29;;;;;;;16.73;15.00;;;;;;;;;;5049314;28;20025;-70
2023/07/17 04:04:56;;;;;;;15.32;13.82;;;;;;;;;;5050231;28;20040;-70
2023/07/17 04:07:21;;;;;;;16.95;15.25;;;;;;;;;;5047694;28;20098;-71
2023/07/17 04:09:47;;;;;;;16.67;14.93;;;;;;;;;;5049067;28;20028;-70
2023/07/17 04:12:12;;;;;;;18.00;16.20;;;;;;;;;;5047915;28;20020;-73
2023/07/17 04:14:37;;;;;;;16.48;14.73;;;;;;;;;;5046362;28;20415;-72
2023/07/17 04:17:06;;;;;;;15.40;13.57;;;;;;;;;;5046466;28;20035;-74
2023/07/17 04:19:31;;;;;;;16.35;14.88;;;;;;;;;;5051651;28;20022;-73
2023/07/17 04:21:56;;;;;;;15.70;14.15;;;;;;;;;;5047708;28;20359;-70
2023/07/17 04:24:25;;;;;;;16.80;14.93;;;;;;;;;;5048391;28;20024;-73
2023/07/17 04:26:52;;;;;;;17.83;14.68;;;;;;;;;;5051807;28;20063;-71
2023/07/17 04:29:19;;;;;;;18.17;15.52;;;;;;;;;;5054194;28;20025;-71
2023/07/17 04:31:44;;;;;;;15.45;13.93;;;;;;;;;;5050548;28;20115;-72
2023/07/17 04:34:09;;;;;;;17.08;15.27;;;;;;;;;;5074307;28;20166;-71
2023/07/17 04:36:35;;;;;;;16.23;14.07;;;;;;;;;;5060624;28;20760;-71
2023/07/17 04:39:04;;;;;;;15.27;13.82;;;;;;;;;;5056869;28;20036;-70
2023/07/17 04:41:29;;;;;;;18.55;15.82;;;;;;;;;;5055191;28;20060;-71
2023/07/17 04:43:54;;;;;;;16.92;15.48;;;;;;;;;;5056761;28;20063;-71
2023/07/17 04:46:20;;;;;;;16.60;15.05;;;;;;;;;;5056991;28;20028;-70
2023/07/17 04:48:45;;;;;;;16.17;14.68;;;;;;;;;;5058423;28;20436;-70
2023/07/17 04:51:11;;;;;;;18.17;14.65;;;;;;;;;;5058296;28;20021;-71
2023/07/17 04:53:36;;;;;;;15.52;14.02;;;;;;;;;;5059467;28;20071;-71
2023/07/17 04:56:02;;;;;;;15.95;14.45;;;;;;;;;;5059649;28;20039;-71
2023/07/17 04:58:28;;;;;;;15.60;14.20;;;;;;;;;;5059031;28;20051;-74
2023/07/17 05:01:03;;;;;;;14.73;13.48;;;;;;;;;;5058581;28;20054;-72
2023/07/17 05:03:29;;;;;;;15.70;14.07;;;;;;;;;;5058379;28;20443;-73
2023/07/17 05:05:54;;;;;;;16.65;14.85;;;;;;;;;;5054752;28;20025;-70
2023/07/17 05:08:20;;;;;;;15.50;14.00;;;;;;;;;;5050109;28;20045;-74
2023/07/17 05:10:53;;;;;;;16.17;14.68;;;;;;;;;;5048286;28;20404;-70
2023/07/17 05:13:18;;;;;;;16.20;14.65;;;;;;;;;;5048711;28;20047;-72
2023/07/17 05:15:43;;;;;;;15.82;14.30;;;;;;;;;;5057116;28;20028;-70
2023/07/17 05:18:09;;;;;;;15.98;14.57;;;;;;;;;;5048943;28;20028;-70
2023/07/17 05:20:34;;;;;;;16.90;15.40;;;;;;;;;;5049417;28;20481;-72
2023/07/17 05:22:59;;;;;;;15.95;14.52;;;;;;;;;;5048834;28;20135;-73
2023/07/17 05:25:25;;;;;;;16.50;14.77;;;;;;;;;;5058712;28;20032;-73
2023/07/17 05:27:51;;;;;;;16.20;14.65;;;;;;;;;;5076926;28;20024;-74
2023/07/17 05:30:16;;;;;;;16.48;14.55;;;;;;;;;;5058057;28;20032;-72
2023/07/17 05:32:42;;;;;;;15.52;14.00;;;;;;;;;;5056859;28;20036;-72
2023/07/17 05:35:07;;;;;;;15.27;13.93;;;;;;;;;;5056929;28;20047;-73
2023/07/17 05:37:33;;;;;;;15.13;13.52;;;;;;;;;;5047926;28;20414;-73
2023/07/17 05:39:58;;;;;;;15.20;13.60;;;;;;;;;;5046876;28;20968;-70
2023/07/17 05:42:24;;;;;;;18.63;13.82;;;;;;;;;;5046101;28;20374;-71
2023/07/17 05:44:49;;;;;;;15.13;13.73;;;;;;;;;;5045545;28;20043;-74
2023/07/17 05:47:14;;;;;;;15.65;14.20;;;;;;;;;;5047410;28;20020;-72
2023/07/17 05:49:40;;;;;;;15.30;13.80;;;;;;;;;;5046095;28;20090;-72
2023/07/17 05:52:05;;;;;;;14.43;13.07;;;;;;;;;;5045954;28;20028;-76
2023/07/17 05:54:30;;;;;;;15.38;13.20;;;;;;;;;;5046917;28;20088;-73
2023/07/17 05:56:56;;;;;;;14.63;13.13;;;;;;;;;;5057318;28;20032;-73
2023/07/17 05:59:21;;;;;;;13.43;12.23;;;;;;;;;;5072418;28;20024;-73
2023/07/17 06:01:46;;;;;;;14.77;13.23;;;;;;;;;;5057980;28;20051;-75
2023/07/17 06:04:12;;;;;;;14.45;12.98;;;;;;;;;;5059662;28;20094;-75
2023/07/17 06:06:37;;;;;;;14.35;12.82;;;;;;;;;;5048107;28;20028;-74
2023/07/17 06:09:03;;;;;;;14.20;12.77;;;;;;;;;;5045379;28;20055;-76
2023/07/17 06:11:28;;;;;;;13.52;12.23;;;;;;;;;;5047621;28;20024;-77
2023/07/17 06:13:53;;;;;;;13.18;12.05;;;;;;;;;;5053475;28;20112;-76
2023/07/17 06:16:19;;;;;;;13.07;11.75;;;;;;;;;;5055530;28;20055;-77
2023/07/17 06:18:44;;;;;;;15.85;13.10;;;;;;;;;;5057984;28;20025;-76
2023/07/17 06:21:10;;;;;;;13.93;12.52;;;;;;;;;;5058677;28;20021;-75
2023/07/17 06:23:35;;;;;;;13.77;12.45;;;;;;;;;;5060544;28;20028;-76
2023/07/17 06:26:00;;;;;;;12.65;11.52;;;;;;;;;;5058564;28;20719;-75
2023/07/17 06:28:27;;;;;;;13.63;12.13;;;;;;;;;;5059194;28;20321;-74
2023/07/17 06:30:52;;;;;;;13.90;12.50;;;;;;;;;;5059040;28;20094;-77
2023/07/17 06:33:17;;;;;;;13.70;12.40;;;;;;;;;;5056846;28;20428;-76
2023/07/17 06:35:45;;;;;;;12.77;11.77;;;;;;;;;;5060418;28;20345;-75
2023/07/17 06:38:11;;;;;;;13.77;11.85;;;;;;;;;;5059494;28;20032;-74
2023/07/17 06:40:38;;;;;;;12.45;11.25;;;;;;;;;;5054650;28;20028;-76
2023/07/17 06:43:03;;;;;;;14.27;11.98;;;;;;;;;;5059809;28;20024;-78
2023/07/17 06:45:28;;;;;;;13.48;11.88;;;;;;;;;;5060637;28;20048;-78
2023/07/17 06:47:54;;;;;;;13.48;12.27;;;;;;;;;;5060524;28;20050;-77
2023/07/17 06:50:19;;;;;;;13.48;12.27;;;;;;;;;;5061388;28;20060;-75
2023/07/17 06:52:44;;;;;;;13.25;12.00;;;;;;;;;;5060389;28;20024;-74
2023/07/17 06:55:10;;;;;;;12.77;11.50;;;;;;;;;;5058989;28;20086;-75
2023/07/17 06:57:35;;;;;;;13.10;11.80;;;;;;;;;;5056273;28;20141;-76
2023/07/17 07:00:00;;;;;;;12.02;10.88;;;;;;;;;;5059274;28;20032;-75
2023/07/17 07:02:26;;;;;;;12.38;11.13;;;;;;;;;;5058215;28;20082;-76
2023/07/17 07:04:51;;;;;;;12.50;11.30;;;;;;;;;;5058528;28;20036;-76
2023/07/17 07:07:16;;;;;;;11.43;10.40;;;;;;;;;;5059315;28;20447;-74
2023/07/17 07:09:42;;;;;;;11.13;9.95;;;;;;;;;;5057952;28;20033;-76
2023/07/17 07:12:08;;;;;;;11.77;10.57;;;;;;;;;;5060415;28;20028;-76
2023/07/17 07:14:33;;;;;;;11.68;10.45;;;;;;;;;;5056439;28;20383;-74
2023/07/17 07:16:58;;;;;;;12.43;11.15;;;;;;;;;;5058256;28;20394;-75
2023/07/17 07:19:23;;;;;;;11.90;10.80;;;;;;;;;;5058448;28;20064;-76
2023/07/17 07:21:49;;;;;;;11.10;9.82;;;;;;;;;;5060270;28;20028;-75
2023/07/17 07:24:14;;;;;;;14.55;10.95;;;;;;;;;;5054337;28;20025;-76
2023/07/17 07:26:39;;;;;;;10.57;9.50;;;;;;;;;;5059046;28;20021;-75
2023/07/17 07:29:05;;;;;;;10.75;9.73;;;;;;;;;;5063966;28;20024;-77
2023/07/17 07:31:30;;;;;;;11.13;9.75;;;;;;;;;;5063637;28;20043;-75
2023/07/17 07:33:55;;;;;;;11.60;10.60;;;;;;;;;;5064161;28;20016;-75
2023/07/17 07:36:22;;;;;;;11.07;9.77;;;;;;;;;;5062406;28;20040;-78
2023/07/17 07:38:48;;;;;;;11.00;9.88;;;;;;;;;;5060866;28;21206;-76
2023/07/17 07:41:13;;;;;;;10.10;9.20;;;;;;;;;;5061552;28;20024;-75
2023/07/17 07:43:39;;;;;;;11.75;10.07;;;;;;;;;;5061789;28;20020;-74
2023/07/17 07:46:04;;;;;;;11.32;10.23;;;;;;;;;;5063659;28;20023;-75
2023/07/17 07:48:31;;;;;;;13.65;9.32;;;;;;;;;;5062570;28;20059;-74
2023/07/17 07:50:56;;;;;;;9.77;8.90;;;;;;;;;;5063690;28;20053;-76
2023/07/17 07:53:22;;;;;;;10.77;8.85;;;;;;;;;;5063264;28;20028;-75
2023/07/17 07:55:47;;;;;;;11.27;9.35;;;;;;;;;;5063357;28;20052;-75
2023/07/17 07:58:12;;;;;;;10.23;9.18;;;;;;;;;;5064001;28;20085;-75
2023/07/17 08:00:38;;;;;;;10.07;8.98;;;;;;;;;;5064404;28;20173;-75
2023/07/17 08:03:04;;;;;;;9.35;8.55;;;;;;;;;;5061459;28;20059;-76
2023/07/17 08:05:29;;;;;;;10.50;9.48;;;;;;;;;;5062516;28;20107;-76
2023/07/17 08:07:54;;;;;;;10.65;8.68;;;;;;;;;;5063159;28;20063;-75
2023/07/17 08:10:20;;;;;;;8.88;8.02;;;;;;;;;;5061115;28;20032;-77
2023/07/17 08:12:45;;;;;;;10.00;9.00;;;;;;;;;;5061768;28;20028;-78
2023/07/17 08:15:10;;;;;;;9.88;8.02;;;;;;;;;;5063528;28;20325;-75
2023/07/17 08:17:36;;;;;;;9.10;8.20;;;;;;;;;;5061294;28;20090;-75
2023/07/17 08:20:03;;;;;;;9.68;8.65;;;;;;;;;;5058916;28;20506;-76
2023/07/17 08:22:29;;;;;;;12.07;8.25;;;;;;;;;;5050415;28;23250;-78
2023/07/17 08:24:54;;;;;;;9.05;8.23;;;;;;;;;;5051190;28;20024;-76
2023/07/17 08:27:19;;;;;;;9.40;8.55;;;;;;;;;;5049339;28;21062;-74
2023/07/17 08:29:45;;;;;;;8.80;8.10;;;;;;;;;;5049245;28;20063;-77
2023/07/17 08:32:11;;;;;;;9.05;8.15;;;;;;;;;;5049581;28;20439;-76
2023/07/17 08:34:36;;;;;;;9.20;8.40;;;;;;;;;;5049637;28;20036;-76
2023/07/17 08:37:02;;;;;;;10.63;8.98;;;;;;;;;;5049470;28;20028;-75
2023/07/17 08:39:27;;;;;;;8.80;7.90;;;;;;;;;;5049309;28;20446;-75
2023/07/17 08:41:52;;;;;;;9.68;8.77;;;;;;;;;;5048920;28;20043;-78
2023/07/17 08:44:18;;;;;;;9.50;8.13;;;;;;;;;;5049073;28;20031;-76
2023/07/17 08:46:44;;;;;;;8.68;7.95;;;;;;;;;;5049848;28;20027;-77
2023/07/17 08:49:11;;;;;;;10.20;8.27;;;;;;;;;;5048470;28;20025;-76
2023/07/17 08:51:36;;;;;;;8.55;7.82;;;;;;;;;;5048994;28;20024;-75
2023/07/17 08:54:03;;;;;;;9.00;8.00;;;;;;;;;;5049086;28;20812;-75
2023/07/17 08:56:29;;;;;;;9.50;8.02;;;;;;;;;;5058567;28;20033;-75
2023/07/17 08:58:54;;;;;;;9.88;7.97;;;;;;;;;;5052142;28;20029;-76
2023/07/17 09:01:20;;;;;;;11.60;8.95;;;;;;;;;;5048178;28;20032;-77
2023/07/17 09:03:45;;;;;;;10.35;8.60;;;;;;;;;;5060581;28;20036;-76
2023/07/17 09:06:13;;;;;;;9.18;8.32;;;;;;;;;;5050595;28;20020;-74
2023/07/17 09:08:38;;;;;;;9.27;8.45;;;;;;;;;;5053854;28;20499;-75
2023/07/17 09:11:05;;;;;;;11.25;10.10;;;;;;;;;;5056002;28;20103;-77
2023/07/17 09:13:40;;;;;;;9.27;8.45;;;;;;;;;;5061948;28;20487;-74
2023/07/17 09:16:32;;;;;;;9.38;8.38;;;;;;;;;;5049807;28;20123;-76
2023/07/17 09:18:57;;;;;;;10.10;9.20;;;;;;;;;;5048747;28;20094;-75
2023/07/17 09:21:23;;;;;;;9.90;8.70;;;;;;;;;;5046429;28;20390;-76
2023/07/17 09:23:51;;;;;;;10.32;9.32;;;;;;;;;;5046644;28;20339;-78
2023/07/17 09:26:20;;;;;;;11.80;10.55;;;;;;;;;;5047546;28;20107;-76
2023/07/17 09:28:52;;;;;;;11.68;10.55;;;;;;;;;;5045643;28;20178;-76
2023/07/17 09:31:25;;;;;;;12.10;9.85;;;;;;;;;;5054817;28;20033;-77
2023/07/17 09:33:50;;;;;;;10.65;9.70;;;;;;;;;;5060298;28;20024;-77
2023/07/17 09:36:16;;;;;;;13.88;11.30;;;;;;;;;;5059611;28;20066;-80
2023/07/17 09:38:41;;;;;;;12.13;11.00;;;;;;;;;;5059832;28;20024;-78
2023/07/17 09:41:16;;;;;;;11.98;10.82;;;;;;;;;;5059962;28;20028;-78
2023/07/17 09:43:41;;;;;;;12.98;10.60;;;;;;;;;;5075893;28;20333;-80
2023/07/17 09:46:06;;;;;;;11.30;10.30;;;;;;;;;;5062995;28;20437;-79
2023/07/17 09:48:32;;;;;;;11.52;10.50;;;;;;;;;;5060950;28;20336;-81
2023/07/17 09:50:57;;;;;;;11.75;10.57;;;;;;;;;;5058989;28;20046;-85
2023/07/17 09:53:24;;;;;;;10.57;9.68;;;;;;;;;;5060345;28;20398;-80
2023/07/17 09:55:49;;;;;;;10.23;9.32;;;;;;;;;;5060854;28;20348;-77
2023/07/17 09:58:16;;;;;;;11.18;9.75;;;;;;;;;;5061561;28;20081;-78
2023/07/17 10:00:42;;;;;;;10.68;9.30;;;;;;;;;;5062915;28;20052;-82
2023/07/17 10:03:10;;;;;;;9.93;8.93;;;;;;;;;;5062646;28;20417;-80
2023/07/17 10:05:38;;;;;;;11.07;9.48;;;;;;;;;;5059939;28;20085;-79
2023/07/17 10:08:05;;;;;;;10.52;9.48;;;;;;;;;;5060845;28;20048;-82
2023/07/17 10:10:31;;;;;;;9.88;8.98;;;;;;;;;;5060786;28;20036;-80
2023/07/17 10:12:56;;;;;;;10.27;9.48;;;;;;;;;;5050773;28;20452;-80
2023/07/17 10:15:23;;;;;;;11.32;9.27;;;;;;;;;;5050300;28;21166;-81
2023/07/17 10:17:58;;;;;;;10.35;9.55;;;;;;;;;;5061133;28;20039;-80
2023/07/17 10:20:24;;;;;;;10.02;9.23;;;;;;;;;;5062169;28;20115;-82
2023/07/17 10:22:50;;;;;;;10.60;9.63;;;;;;;;;;5059956;28;20024;-75
2023/07/17 10:25:18;;;;;;;10.15;9.32;;;;;;;;;;5061837;28;20426;-75
2023/07/17 10:27:50;;;;;;;11.13;10.15;;;;;;;;;;5062680;28;20090;-79
2023/07/17 10:30:25;;;;;;;10.57;9.57;;;;;;;;;;5061007;28;20432;-78
2023/07/17 10:33:03;;;;;;;11.45;10.20;;;;;;;;;;5062473;28;20020;-75
2023/07/17 10:35:31;;;;;;;13.48;10.52;;;;;;;;;;5059101;28;20044;-79
2023/07/17 10:38:07;;;;;;;10.75;9.75;;;;;;;;;;5048953;28;20463;-77
2023/07/17 10:40:33;;;;;;;13.13;10.35;;;;;;;;;;5061816;28;20436;-75
2023/07/17 10:43:18;;;;;;;11.52;9.70;;;;;;;;;;5060440;28;20094;-78
2023/07/17 10:45:45;;;;;;;12.40;8.90;;;;;;;;;;5059773;28;20388;-78
2023/07/17 10:48:10;;;;;;;10.85;9.85;;;;;;;;;;5060912;28;20055;-77
2023/07/17 10:50:37;;;;;;;10.82;9.75;;;;;;;;;;5060876;28;20064;-76
2023/07/17 10:53:03;;;;;;;9.82;8.90;;;;;;;;;;5061355;28;20020;-74
2023/07/17 10:55:29;;;;;;;14.23;9.75;;;;;;;;;;5057900;28;20460;-76
2023/07/17 10:57:55;;;;;;;12.23;10.00;;;;;;;;;;5049977;28;20063;-77
2023/07/17 11:00:20;;;;;;;10.38;9.40;;;;;;;;;;5058259;28;20455;-78
2023/07/17 11:02:45;;;;;;;11.10;10.00;;;;;;;;;;5062653;28;20025;-78
2023/07/17 11:05:11;;;;;;;10.23;9.32;;;;;;;;;;5063258;28;20142;-76
2023/07/17 11:07:36;;;;;;;10.23;9.18;;;;;;;;;;5063369;28;20102;-76
2023/07/17 11:10:01;;;;;;;10.93;9.85;;;;;;;;;;5065362;28;20028;-77
2023/07/17 11:12:27;;;;;;;10.15;9.25;;;;;;;;;;5065721;28;20396;-77
2023/07/17 11:14:52;;;;;;;10.52;9.63;;;;;;;;;;5063495;28;20470;-76
2023/07/17 11:17:18;;;;;;;10.18;9.38;;;;;;;;;;5063280;28;20037;-75
2023/07/17 11:19:44;;;;;;;10.93;9.65;;;;;;;;;;5063461;28;20032;-77
2023/07/17 11:22:09;;;;;;;9.90;9.02;;;;;;;;;;5064483;28;20129;-78
2023/07/17 11:24:35;;;;;;;9.88;8.95;;;;;;;;;;5063673;28;20056;-77
2023/07/17 11:27:00;;;;;;;10.27;9.27;;;;;;;;;;5065033;28;20029;-77
2023/07/17 11:29:26;;;;;;;10.05;9.10;;;;;;;;;;5063795;28;20101;-75
2023/07/17 11:31:59;;;;;;;9.85;9.02;;;;;;;;;;5064662;28;20020;-75
2023/07/17 11:34:24;;;;;;;8.70;7.88;;;;;;;;;;5065489;28;20032;-74
2023/07/17 11:36:50;;;;;;;9.13;8.18;;;;;;;;;;5064795;28;20050;-76
2023/07/17 11:39:18;;;;;;;9.20;8.32;;;;;;;;;;5064632;28;20056;-76
2023/07/17 11:42:04;;;;;;;9.90;8.52;;;;;;;;;;5064565;28;20301;-74
2023/07/17 11:44:32;;;;;;;9.07;8.30;;;;;;;;;;5064880;28;20039;-79
2023/07/17 11:47:01;;;;;;;10.30;9.30;;;;;;;;;;5063845;28;20431;-76
2023/07/17 11:49:28;;;;;;;9.73;8.85;;;;;;;;;;5064947;28;20111;-77
2023/07/17 11:51:55;;;;;;;9.95;8.98;;;;;;;;;;5063258;28;20095;-76
2023/07/17 11:54:20;;;;;;;10.27;9.25;;;;;;;;;;5062384;28;20085;-77
2023/07/17 11:56:45;;;;;;;10.13;9.02;;;;;;;;;;5061922;28;20117;-77
2023/07/17 11:59:21;;;;;;;9.95;8.88;;;;;;;;;;5064115;28;20414;-74
2023/07/17 12:01:47;;;;;;;12.52;9.02;;;;;;;;;;5063559;28;20124;-77
2023/07/17 12:04:22;;;;;;;9.43;8.50;;;;;;;;;;5063633;28;20036;-75
2023/07/17 12:06:48;;;;;;;9.57;8.60;;;;;;;;;;5064359;28;20036;-78
2023/07/17 12:09:13;;;;;;;9.65;8.65;;;;;;;;;;5064867;28;20044;-77
2023/07/17 12:11:39;;;;;;;9.98;9.07;;;;;;;;;;5062230;28;20028;-75
2023/07/17 12:14:05;;;;;;;9.13;8.40;;;;;;;;;;5077016;28;20492;-77
2023/07/17 12:16:30;;;;;;;10.13;9.13;;;;;;;;;;5064641;28;20120;-76
2023/07/17 12:18:56;;;;;;;11.85;9.15;;;;;;;;;;5063364;28;20032;-75
2023/07/17 12:21:21;;;;;;;9.77;8.60;;;;;;;;;;5064551;28;20107;-78
2023/07/17 12:23:46;;;;;;;9.93;8.93;;;;;;;;;;5062873;28;20034;-79
2023/07/17 12:26:11;;;;;;;8.68;7.88;;;;;;;;;;5063081;28;20028;-76
2023/07/17 12:28:37;;;;;;;12.10;8.70;;;;;;;;;;5063278;28;20101;-75
2023/07/17 12:31:03;;;;;;;9.23;8.40;;;;;;;;;;5062834;28;20077;-80
2023/07/17 12:33:28;;;;;;;9.27;8.48;;;;;;;;;;5062083;28;20448;-76
2023/07/17 12:35:54;;;;;;;8.77;8.07;;;;;;;;;;5062170;28;20028;-75
2023/07/17 12:38:19;;;;;;;8.90;8.02;;;;;;;;;;5062182;28;20039;-77
2023/07/17 12:40:45;;;;;;;9.30;8.40;;;;;;;;;;5062141;28;20043;-75
2023/07/17 12:43:10;;;;;;;9.20;8.50;;;;;;;;;;5063684;28;20024;-76
2023/07/17 12:45:35;;;;;;;8.57;7.65;;;;;;;;;;5062797;28;20043;-76
2023/07/17 12:48:01;;;;;;;8.73;7.90;;;;;;;;;;5079564;28;20029;-77
2023/07/17 12:50:26;;;;;;;9.30;8.50;;;;;;;;;;5062314;28;20020;-77
2023/07/17 12:52:51;;;;;;;9.02;7.88;;;;;;;;;;5064060;28;20021;-76
2023/07/17 12:55:17;;;;;;;9.35;8.35;;;;;;;;;;5063040;28;20369;-77
2023/07/17 12:57:42;;;;;;;9.15;8.25;;;;;;;;;;5063837;28;20109;-76
2023/07/17 13:00:08;;;;;;;8.73;7.93;;;;;;;;;;5063678;28;20020;-74
2023/07/17 13:02:33;;;;;;;8.80;8.10;;;;;;;;;;5062719;28;20040;-78
2023/07/17 13:04:58;;;;;;;8.55;7.75;;;;;;;;;;5061880;28;20032;-77
2023/07/17 13:07:24;;;;;;;8.45;7.75;;;;;;;;;;5062330;28;20084;-77
2023/07/17 13:09:49;;;;;;;9.30;8.50;;;;;;;;;;5061665;28;20025;-77
2023/07/17 13:12:15;;;;;;;8.55;7.85;;;;;;;;;;5061601;28;20048;-77
2023/07/17 13:14:41;;;;;;;8.18;7.40;;;;;;;;;;5062302;28;20119;-77
2023/07/17 13:17:06;;;;;;;9.10;8.13;;;;;;;;;;5062427;28;20091;-77
2023/07/17 13:19:32;;;;;;;8.30;7.57;;;;;;;;;;5060884;28;20076;-76
2023/07/17 13:21:57;;;;;;;8.00;7.28;;;;;;;;;;5061508;28;20040;-77
2023/07/17 13:24:23;;;;;;;11.35;7.80;;;;;;;;;;5063054;28;20163;-76
2023/07/17 13:26:48;;;;;;;8.85;8.07;;;;;;;;;;5062254;28;20426;-77
2023/07/17 13:29:13;;;;;;;9.23;8.50;;;;;;;;;;5062794;28;20024;-76
2023/07/17 13:31:39;;;;;;;10.27;9.35;;;;;;;;;;5059883;28;20021;-76
2023/07/17 13:34:04;;;;;;;9.75;8.95;;;;;;;;;;5061113;28;20530;-76
2023/07/17 13:36:29;;;;;;;9.75;8.90;;;;;;;;;;5062177;28;20036;-78
2023/07/17 13:38:55;;;;;;;9.63;8.93;;;;;;;;;;5063377;28;20028;-78
2023/07/17 13:41:40;;;;;;;10.45;9.55;;;;;;;;;;5061949;28;20406;-77
2023/07/17 13:44:05;;;;;;;10.90;9.90;;;;;;;;;;5062309;28;20024;-77
2023/07/17 13:46:31;;;;;;;10.30;9.48;;;;;;;;;;5061646;28;20348;-77
2023/07/17 13:48:56;;;;;;;10.98;10.07;;;;;;;;;;5060661;28;20028;-76
2023/07/17 13:51:22;;;;;;;10.82;9.82;;;;;;;;;;5061017;28;20021;-77
2023/07/17 13:53:47;;;;;;;10.90;9.77;;;;;;;;;;5061831;28;20016;-77
2023/07/17 13:56:13;;;;;;;11.38;10.07;;;;;;;;;;5060643;28;20121;-76
2023/07/17 13:58:38;;;;;;;11.50;10.55;;;;;;;;;;5061364;28;20024;-75
2023/07/17 14:01:03;;;;;;;11.32;10.32;;;;;;;;;;5061794;28;20348;-76
2023/07/17 14:03:29;;;;;;;10.82;9.82;;;;;;;;;;5061246;28;20087;-77
2023/07/17 14:05:54;;;;;;;11.50;10.27;;;;;;;;;;5061858;28;21046;-78
2023/07/17 14:08:19;;;;;;;11.18;10.18;;;;;;;;;;5060297;28;20139;-76
2023/07/17 14:10:45;;;;;;;11.40;10.35;;;;;;;;;;5062001;28;20048;-76
2023/07/17 14:13:10;;;;;;;11.25;10.32;;;;;;;;;;5061188;28;20025;-76
2023/07/17 14:15:36;;;;;;;10.75;9.80;;;;;;;;;;5059627;28;20113;-77
2023/07/17 14:18:01;;;;;;;12.15;10.77;;;;;;;;;;5060041;28;20107;-77
2023/07/17 14:20:27;;;;;;;14.85;9.93;;;;;;;;;;5058867;28;20412;-75